sensor_id;sensor_type;location;lat;lon;timestamp;pressure;altitude;pressure_sealevel;temperature;humidity
26436;BME280;15351;52.408;16.826;2023-02-15T00:02:23;102670.41;;;2.36;69.14
26436;BME280;15351;52.408;16.826;2023-02-15T00:04:51;102673.96;;;2.39;68.87
26436;BME280;15351;52.408;16.826;2023-02-15T00:07:22;102672.42;;;2.38;68.60
26436;BME280;15351;52.408;16.826;2023-02-15T00:09:50;102671.67;;;2.31;68.53
26436;BME280;15351;52.408;16.826;2023-02-15T00:12:25;102672.52;;;2.24;68.70
26436;BME280;15351;52.408;16.826;2023-02-15T00:14:54;102675.84;;;2.22;68.73
26436;BME280;15351;52.408;16.826;2023-02-15T00:17:21;102673.42;;;2.21;68.78
26436;BME280;15351;52.408;16.826;2023-02-15T00:19:48;102674.84;;;2.21;68.60
26436;BME280;15351;52.408;16.826;2023-02-15T00:22:15;102671.56;;;2.18;68.54
26436;BME280;15351;52.408;16.826;2023-02-15T00:24:42;102667.70;;;2.14;68.33
26436;BME280;15351;52.408;16.826;2023-02-15T00:27:10;102665.37;;;2.07;68.62
26436;BME280;15351;52.408;16.826;2023-02-15T00:29:40;102664.12;;;2.03;68.84
26436;BME280;15351;52.408;16.826;2023-02-15T00:32:12;102664.98;;;2.00;68.94
26436;BME280;15351;52.408;16.826;2023-02-15T00:34:41;102659.89;;;1.99;69.03
26436;BME280;15351;52.408;16.826;2023-02-15T00:37:10;102657.48;;;1.97;69.00
26436;BME280;15351;52.408;16.826;2023-02-15T00:39:38;102658.33;;;1.98;69.04
26436;BME280;15351;52.408;16.826;2023-02-15T00:42:06;102652.77;;;1.99;68.95
26436;BME280;15351;52.408;16.826;2023-02-15T00:44:34;102655.70;;;1.98;69.19
26436;BME280;15351;52.408;16.826;2023-02-15T00:47:01;102654.11;;;1.97;69.19
26436;BME280;15351;52.408;16.826;2023-02-15T00:49:29;102644.95;;;1.99;69.14
26436;BME280;15351;52.408;16.826;2023-02-15T00:51:57;102643.95;;;2.02;68.83
26436;BME280;15351;52.408;16.826;2023-02-15T00:54:25;102641.23;;;1.99;68.75
26436;BME280;15351;52.408;16.826;2023-02-15T00:56:53;102643.65;;;1.97;68.76
26436;BME280;15351;52.408;16.826;2023-02-15T00:59:21;102638.55;;;1.96;68.86
26436;BME280;15351;52.408;16.826;2023-02-15T01:01:48;102642.52;;;1.95;68.79
26436;BME280;15351;52.408;16.826;2023-02-15T01:04:15;102641.02;;;1.93;68.75
26436;BME280;15351;52.408;16.826;2023-02-15T01:06:43;102634.28;;;1.93;68.75
26436;BME280;15351;52.408;16.826;2023-02-15T01:09:14;102637.92;;;1.91;68.75
26436;BME280;15351;52.408;16.826;2023-02-15T01:11:41;102630.66;;;1.91;68.68
26436;BME280;15351;52.408;16.826;2023-02-15T01:14:11;102631.01;;;1.95;68.81
26436;BME280;15351;52.408;16.826;2023-02-15T01:17:03;102628.26;;;1.93;68.48
26436;BME280;15351;52.408;16.826;2023-02-15T01:19:34;102625.83;;;1.88;68.41
26436;BME280;15351;52.408;16.826;2023-02-15T01:22:02;102623.13;;;1.84;68.45
26436;BME280;15351;52.408;16.826;2023-02-15T01:24:31;102626.85;;;1.84;68.54
26436;BME280;15351;52.408;16.826;2023-02-15T01:27:03;102627.63;;;1.83;68.51
26436;BME280;15351;52.408;16.826;2023-02-15T01:29:32;102625.63;;;1.84;68.38
26436;BME280;15351;52.408;16.826;2023-02-15T01:32:02;102626.21;;;1.83;68.27
26436;BME280;15351;52.408;16.826;2023-02-15T01:34:30;102623.72;;;1.79;68.06
26436;BME280;15351;52.408;16.826;2023-02-15T01:36:59;102619.66;;;1.75;67.98
26436;BME280;15351;52.408;16.826;2023-02-15T01:39:26;102618.52;;;1.73;68.34
26436;BME280;15351;52.408;16.826;2023-02-15T01:41:54;102611.89;;;1.71;68.38
26436;BME280;15351;52.408;16.826;2023-02-15T01:44:58;102613.61;;;1.72;68.42
26436;BME280;15351;52.408;16.826;2023-02-15T01:47:47;102606.96;;;1.69;68.36
26436;BME280;15351;52.408;16.826;2023-02-15T01:50:55;102603.61;;;1.69;68.28
26436;BME280;15351;52.408;16.826;2023-02-15T01:53:35;102604.48;;;1.66;68.37
26436;BME280;15351;52.408;16.826;2023-02-15T01:56:11;102606.91;;;1.67;68.76
26436;BME280;15351;52.408;16.826;2023-02-15T01:58:41;102606.60;;;1.74;68.88
26436;BME280;15351;52.408;16.826;2023-02-15T02:01:11;102601.29;;;1.78;68.69
26436;BME280;15351;52.408;16.826;2023-02-15T02:04:20;102600.40;;;1.77;68.66
26436;BME280;15351;52.408;16.826;2023-02-15T02:06:47;102596.98;;;1.71;68.54
26436;BME280;15351;52.408;16.826;2023-02-15T02:09:16;102597.75;;;1.69;68.71
26436;BME280;15351;52.408;16.826;2023-02-15T02:11:46;102592.25;;;1.70;68.75
26436;BME280;15351;52.408;16.826;2023-02-15T02:14:15;102585.70;;;1.69;68.62
26436;BME280;15351;52.408;16.826;2023-02-15T02:33:14;102567.99;;;1.57;68.20
26436;BME280;15351;52.408;16.826;2023-02-15T02:36:14;102567.35;;;1.52;68.21
26436;BME280;15351;52.408;16.826;2023-02-15T02:39:07;102562.50;;;1.46;68.18
26436;BME280;15351;52.408;16.826;2023-02-15T02:42:01;102562.88;;;1.42;68.57
26436;BME280;15351;52.408;16.826;2023-02-15T02:44:44;102559.41;;;1.40;68.40
26436;BME280;15351;52.408;16.826;2023-02-15T02:47:37;102555.41;;;1.38;68.33
26436;BME280;15351;52.408;16.826;2023-02-15T02:50:15;102549.04;;;1.34;68.26
26436;BME280;15351;52.408;16.826;2023-02-15T02:52:46;102547.69;;;1.29;68.30
26436;BME280;15351;52.408;16.826;2023-02-15T03:01:03;102543.86;;;1.27;68.64
26436;BME280;15351;52.408;16.826;2023-02-15T03:03:39;102545.27;;;1.28;68.70
26436;BME280;15351;52.408;16.826;2023-02-15T03:06:12;102537.96;;;1.29;68.85
26436;BME280;15351;52.408;16.826;2023-02-15T03:08:52;102538.17;;;1.28;68.90
26436;BME280;15351;52.408;16.826;2023-02-15T03:11:24;102534.40;;;1.29;68.94
26436;BME280;15351;52.408;16.826;2023-02-15T03:13:51;102531.11;;;1.31;68.86
26436;BME280;15351;52.408;16.826;2023-02-15T03:16:20;102530.92;;;1.32;68.77
26436;BME280;15351;52.408;16.826;2023-02-15T03:19:14;102533.41;;;1.31;68.73
26436;BME280;15351;52.408;16.826;2023-02-15T03:22:07;102526.82;;;1.32;68.82
26436;BME280;15351;52.408;16.826;2023-02-15T03:27:31;102525.60;;;1.32;68.60
26436;BME280;15351;52.408;16.826;2023-02-15T03:30:04;102525.44;;;1.31;68.50
26436;BME280;15351;52.408;16.826;2023-02-15T03:32:36;102528.37;;;1.29;68.37
26436;BME280;15351;52.408;16.826;2023-02-15T03:35:06;102527.48;;;1.25;68.55
26436;BME280;15351;52.408;16.826;2023-02-15T03:37:41;102523.86;;;1.23;68.62
26436;BME280;15351;52.408;16.826;2023-02-15T03:40:34;102522.02;;;1.24;68.62
26436;BME280;15351;52.408;16.826;2023-02-15T03:43:54;102527.48;;;1.25;68.61
26436;BME280;15351;52.408;16.826;2023-02-15T03:46:40;102522.73;;;1.24;68.61
26436;BME280;15351;52.408;16.826;2023-02-15T03:49:25;102523.23;;;1.21;68.50
26436;BME280;15351;52.408;16.826;2023-02-15T03:51:56;102518.38;;;1.15;68.53
26436;BME280;15351;52.408;16.826;2023-02-15T03:54:29;102517.63;;;1.12;68.73
26436;BME280;15351;52.408;16.826;2023-02-15T03:57:18;102518.84;;;1.13;68.69
26436;BME280;15351;52.408;16.826;2023-02-15T04:00:18;102512.25;;;1.13;68.60
26436;BME280;15351;52.408;16.826;2023-02-15T04:05:51;102508.88;;;1.10;69.13
26436;BME280;15351;52.408;16.826;2023-02-15T04:08:19;102500.48;;;1.15;69.47
26436;BME280;15351;52.408;16.826;2023-02-15T04:10:48;102502.25;;;1.23;69.52
26436;BME280;15351;52.408;16.826;2023-02-15T04:13:34;102499.02;;;1.28;69.27
26436;BME280;15351;52.408;16.826;2023-02-15T04:16:02;102497.04;;;1.29;69.29
26436;BME280;15351;52.408;16.826;2023-02-15T04:18:41;102493.55;;;1.28;69.52
26436;BME280;15351;52.408;16.826;2023-02-15T04:21:29;102489.58;;;1.25;69.74
26436;BME280;15351;52.408;16.826;2023-02-15T04:24:18;102489.67;;;1.27;69.89
26436;BME280;15351;52.408;16.826;2023-02-15T04:27:04;102486.29;;;1.31;69.98
26436;BME280;15351;52.408;16.826;2023-02-15T04:29:36;102485.39;;;1.31;69.75
26436;BME280;15351;52.408;16.826;2023-02-15T04:32:05;102487.18;;;1.31;69.74
26436;BME280;15351;52.408;16.826;2023-02-15T04:34:33;102486.41;;;1.32;69.67
26436;BME280;15351;52.408;16.826;2023-02-15T04:37:02;102487.59;;;1.37;69.81
26436;BME280;15351;52.408;16.826;2023-02-15T04:39:29;102487.13;;;1.39;69.71
26436;BME280;15351;52.408;16.826;2023-02-15T04:41:59;102479.58;;;1.38;69.46
26436;BME280;15351;52.408;16.826;2023-02-15T04:44:26;102474.74;;;1.32;69.37
26436;BME280;15351;52.408;16.826;2023-02-15T04:46:53;102477.13;;;1.26;69.51
26436;BME280;15351;52.408;16.826;2023-02-15T04:49:22;102472.77;;;1.24;69.77
26436;BME280;15351;52.408;16.826;2023-02-15T04:51:49;102471.67;;;1.25;69.69
26436;BME280;15351;52.408;16.826;2023-02-15T04:54:17;102469.39;;;1.24;69.74
26436;BME280;15351;52.408;16.826;2023-02-15T04:56:46;102473.95;;;1.26;69.67
26436;BME280;15351;52.408;16.826;2023-02-15T04:59:14;102473.95;;;1.26;69.53
26436;BME280;15351;52.408;16.826;2023-02-15T05:01:42;102469.73;;;1.25;69.59
26436;BME280;15351;52.408;16.826;2023-02-15T05:04:09;102470.94;;;1.21;69.83
26436;BME280;15351;52.408;16.826;2023-02-15T05:06:39;102472.10;;;1.23;69.70
26436;BME280;15351;52.408;16.826;2023-02-15T05:09:07;102468.09;;;1.22;69.72
26436;BME280;15351;52.408;16.826;2023-02-15T05:11:35;102467.77;;;1.25;69.61
26436;BME280;15351;52.408;16.826;2023-02-15T05:14:03;102468.25;;;1.22;69.36
26436;BME280;15351;52.408;16.826;2023-02-15T05:16:33;102468.15;;;1.21;69.50
26436;BME280;15351;52.408;16.826;2023-02-15T05:19:02;102467.84;;;1.20;69.59
26436;BME280;15351;52.408;16.826;2023-02-15T05:21:32;102468.11;;;1.21;69.42
26436;BME280;15351;52.408;16.826;2023-02-15T05:24:16;102465.65;;;1.21;69.27
26436;BME280;15351;52.408;16.826;2023-02-15T05:27:12;102467.95;;;1.21;69.28
26436;BME280;15351;52.408;16.826;2023-02-15T05:29:58;102471.80;;;1.18;69.20
26436;BME280;15351;52.408;16.826;2023-02-15T05:32:25;102471.42;;;1.15;69.28
26436;BME280;15351;52.408;16.826;2023-02-15T05:34:53;102473.17;;;1.15;69.27
26436;BME280;15351;52.408;16.826;2023-02-15T05:37:20;102471.45;;;1.14;69.09
26436;BME280;15351;52.408;16.826;2023-02-15T05:39:47;102467.99;;;1.13;69.27
26436;BME280;15351;52.408;16.826;2023-02-15T05:42:14;102465.63;;;1.10;69.28
26436;BME280;15351;52.408;16.826;2023-02-15T05:44:42;102469.55;;;1.10;69.68
26436;BME280;15351;52.408;16.826;2023-02-15T05:47:09;102470.17;;;1.12;70.07
26436;BME280;15351;52.408;16.826;2023-02-15T05:49:38;102468.59;;;1.19;70.42
26436;BME280;15351;52.408;16.826;2023-02-15T05:52:06;102470.72;;;1.27;70.75
26436;BME280;15351;52.408;16.826;2023-02-15T05:54:35;102469.40;;;1.29;70.73
26436;BME280;15351;52.408;16.826;2023-02-15T05:57:02;102466.65;;;1.30;70.94
26436;BME280;15351;52.408;16.826;2023-02-15T05:59:29;102468.98;;;1.33;70.94
26436;BME280;15351;52.408;16.826;2023-02-15T06:01:57;102467.32;;;1.39;71.13
26436;BME280;15351;52.408;16.826;2023-02-15T06:04:25;102465.19;;;1.43;70.95
26436;BME280;15351;52.408;16.826;2023-02-15T06:06:53;102465.48;;;1.44;70.78
26436;BME280;15351;52.408;16.826;2023-02-15T06:09:21;102464.67;;;1.43;70.74
26436;BME280;15351;52.408;16.826;2023-02-15T06:11:48;102462.33;;;1.39;70.84
26436;BME280;15351;52.408;16.826;2023-02-15T06:14:16;102460.94;;;1.39;71.06
26436;BME280;15351;52.408;16.826;2023-02-15T06:16:44;102457.11;;;1.41;70.94
26436;BME280;15351;52.408;16.826;2023-02-15T06:19:12;102458.66;;;1.42;70.75
26436;BME280;15351;52.408;16.826;2023-02-15T06:21:40;102459.67;;;1.39;70.66
26436;BME280;15351;52.408;16.826;2023-02-15T06:24:10;102456.94;;;1.37;70.90
26436;BME280;15351;52.408;16.826;2023-02-15T06:26:38;102457.40;;;1.38;71.15
26436;BME280;15351;52.408;16.826;2023-02-15T06:29:05;102455.73;;;1.40;71.17
26436;BME280;15351;52.408;16.826;2023-02-15T06:31:32;102454.11;;;1.41;71.21
26436;BME280;15351;52.408;16.826;2023-02-15T06:34:00;102448.79;;;1.41;71.32
26436;BME280;15351;52.408;16.826;2023-02-15T06:36:46;102447.15;;;1.46;71.40
26436;BME280;15351;52.408;16.826;2023-02-15T06:39:16;102444.06;;;1.47;71.44
26436;BME280;15351;52.408;16.826;2023-02-15T06:41:43;102443.99;;;1.52;71.65
26436;BME280;15351;52.408;16.826;2023-02-15T06:44:10;102443.57;;;1.57;71.67
26436;BME280;15351;52.408;16.826;2023-02-15T06:46:38;102440.66;;;1.62;71.67
26436;BME280;15351;52.408;16.826;2023-02-15T06:49:07;102442.39;;;1.63;71.73
26436;BME280;15351;52.408;16.826;2023-02-15T06:51:42;102439.36;;;1.67;72.07
26436;BME280;15351;52.408;16.826;2023-02-15T06:54:09;102439.88;;;1.75;72.36
26436;BME280;15351;52.408;16.826;2023-02-15T06:56:36;102434.63;;;1.81;72.47
26436;BME280;15351;52.408;16.826;2023-02-15T06:59:03;102437.46;;;1.88;72.76
26436;BME280;15351;52.408;16.826;2023-02-15T07:01:34;102435.98;;;1.93;72.92
26436;BME280;15351;52.408;16.826;2023-02-15T07:04:05;102437.77;;;1.99;73.20
26436;BME280;15351;52.408;16.826;2023-02-15T07:06:33;102438.30;;;2.10;73.73
26436;BME280;15351;52.408;16.826;2023-02-15T07:09:01;102438.19;;;2.19;73.98
26436;BME280;15351;52.408;16.826;2023-02-15T07:11:30;102434.14;;;2.26;73.91
26436;BME280;15351;52.408;16.826;2023-02-15T07:14:17;102437.77;;;2.31;74.01
26436;BME280;15351;52.408;16.826;2023-02-15T07:16:45;102435.08;;;2.39;74.28
26436;BME280;15351;52.408;16.826;2023-02-15T07:19:14;102427.86;;;2.47;74.70
26436;BME280;15351;52.408;16.826;2023-02-15T07:21:43;102428.21;;;2.54;74.69
26436;BME280;15351;52.408;16.826;2023-02-15T07:24:14;102423.70;;;2.59;74.81
26436;BME280;15351;52.408;16.826;2023-02-15T07:26:41;102419.73;;;2.67;74.99
26436;BME280;15351;52.408;16.826;2023-02-15T07:29:08;102418.53;;;2.73;75.09
26436;BME280;15351;52.408;16.826;2023-02-15T07:31:37;102412.03;;;2.84;75.28
26436;BME280;15351;52.408;16.826;2023-02-15T07:34:07;102402.98;;;2.93;75.15
26436;BME280;15351;52.408;16.826;2023-02-15T07:36:37;102402.30;;;3.00;75.07
26436;BME280;15351;52.408;16.826;2023-02-15T07:39:04;102399.27;;;3.03;75.13
26436;BME280;15351;52.408;16.826;2023-02-15T07:41:32;102398.38;;;3.10;75.06
26436;BME280;15351;52.408;16.826;2023-02-15T07:44:01;102395.08;;;3.18;75.35
26436;BME280;15351;52.408;16.826;2023-02-15T07:46:28;102396.70;;;3.24;75.20
26436;BME280;15351;52.408;16.826;2023-02-15T07:48:57;102400.58;;;3.28;75.12
26436;BME280;15351;52.408;16.826;2023-02-15T07:51:28;102403.83;;;3.31;75.04
26436;BME280;15351;52.408;16.826;2023-02-15T07:53:55;102402.27;;;3.36;75.26
26436;BME280;15351;52.408;16.826;2023-02-15T07:56:23;102398.75;;;3.44;75.42
26436;BME280;15351;52.408;16.826;2023-02-15T07:58:51;102393.63;;;3.53;75.39
26436;BME280;15351;52.408;16.826;2023-02-15T08:01:23;102393.15;;;3.58;75.22
26436;BME280;15351;52.408;16.826;2023-02-15T08:03:53;102394.71;;;3.66;75.21
26436;BME280;15351;52.408;16.826;2023-02-15T08:06:27;102389.69;;;3.72;75.25
26436;BME280;15351;52.408;16.826;2023-02-15T08:08:57;102382.66;;;3.76;75.33
26436;BME280;15351;52.408;16.826;2023-02-15T08:11:30;102380.05;;;3.85;75.31
26436;BME280;15351;52.408;16.826;2023-02-15T08:14:24;102377.39;;;3.91;75.15
26436;BME280;15351;52.408;16.826;2023-02-15T08:16:59;102371.10;;;3.95;75.13
26436;BME280;15351;52.408;16.826;2023-02-15T08:19:34;102358.77;;;3.98;75.13
26436;BME280;15351;52.408;16.826;2023-02-15T08:22:07;102354.94;;;4.06;75.26
26436;BME280;15351;52.408;16.826;2023-02-15T08:24:47;102345.46;;;4.16;75.04
26436;BME280;15351;52.408;16.826;2023-02-15T08:27:15;102344.21;;;4.47;75.44
26436;BME280;15351;52.408;16.826;2023-02-15T08:29:41;102330.88;;;5.96;75.16
26436;BME280;15351;52.408;16.826;2023-02-15T08:32:11;102319.45;;;7.84;73.25
26436;BME280;15351;52.408;16.826;2023-02-15T08:34:41;102309.71;;;9.69;69.58
26436;BME280;15351;52.408;16.826;2023-02-15T08:37:11;102296.53;;;11.35;65.93
26436;BME280;15351;52.408;16.826;2023-02-15T08:39:54;102292.22;;;13.00;61.68
26436;BME280;15351;52.408;16.826;2023-02-15T08:42:29;102287.55;;;14.20;58.04
26436;BME280;15351;52.408;16.826;2023-02-15T08:45:02;102285.78;;;15.22;55.20
26436;BME280;15351;52.408;16.826;2023-02-15T08:47:52;102281.61;;;15.98;52.33
26436;BME280;15351;52.408;16.826;2023-02-15T08:50:39;102282.61;;;16.74;50.66
26436;BME280;15351;52.408;16.826;2023-02-15T08:53:18;102282.11;;;17.38;48.78
26436;BME280;15351;52.408;16.826;2023-02-15T08:56:15;102276.46;;;17.77;46.39
26436;BME280;15351;52.408;16.826;2023-02-15T08:58:42;102280.06;;;17.50;45.86
26436;BME280;15351;52.408;16.826;2023-02-15T09:01:17;102280.30;;;17.23;45.93
26436;BME280;15351;52.408;16.826;2023-02-15T09:03:50;102277.91;;;16.81;45.35
26436;BME280;15351;52.408;16.826;2023-02-15T09:06:23;102275.34;;;15.90;45.98
26436;BME280;15351;52.408;16.826;2023-02-15T09:08:54;102275.89;;;15.26;46.72
26436;BME280;15351;52.408;16.826;2023-02-15T09:11:25;102278.19;;;14.66;47.27
26436;BME280;15351;52.408;16.826;2023-02-15T09:14:03;102278.78;;;14.02;47.49
26436;BME280;15351;52.408;16.826;2023-02-15T09:16:37;102278.61;;;13.75;48.62
26436;BME280;15351;52.408;16.826;2023-02-15T09:19:15;102278.80;;;13.58;48.74
26436;BME280;15351;52.408;16.826;2023-02-15T09:21:45;102276.85;;;13.45;49.13
26436;BME280;15351;52.408;16.826;2023-02-15T09:24:19;102269.89;;;13.44;49.30
26436;BME280;15351;52.408;16.826;2023-02-15T09:27:02;102271.74;;;13.29;49.44
26436;BME280;15351;52.408;16.826;2023-02-15T09:29:50;102271.09;;;13.23;49.22
26436;BME280;15351;52.408;16.826;2023-02-15T09:32:18;102272.54;;;12.87;49.48
26436;BME280;15351;52.408;16.826;2023-02-15T09:34:45;102268.04;;;12.36;49.37
26436;BME280;15351;52.408;16.826;2023-02-15T09:37:16;102263.89;;;11.71;50.34
26436;BME280;15351;52.408;16.826;2023-02-15T09:39:48;102267.95;;;11.39;51.42
26436;BME280;15351;52.408;16.826;2023-02-15T09:43:02;102267.20;;;11.13;51.97
26436;BME280;15351;52.408;16.826;2023-02-15T09:45:29;102267.12;;;10.69;52.87
26436;BME280;15351;52.408;16.826;2023-02-15T09:48:26;102265.42;;;10.46;53.54
26436;BME280;15351;52.408;16.826;2023-02-15T09:51:10;102264.75;;;10.25;53.75
26436;BME280;15351;52.408;16.826;2023-02-15T09:56:51;102257.64;;;9.74;55.20
26436;BME280;15351;52.408;16.826;2023-02-15T10:02:27;102251.54;;;9.56;55.65
26436;BME280;15351;52.408;16.826;2023-02-15T10:26:11;102217.77;;;9.82;57.88
26436;BME280;15351;52.408;16.826;2023-02-15T10:29:07;102212.76;;;10.00;57.43
26436;BME280;15351;52.408;16.826;2023-02-15T10:31:50;102207.33;;;10.13;57.16
26436;BME280;15351;52.408;16.826;2023-02-15T10:37:40;102200.91;;;10.33;56.93
26436;BME280;15351;52.408;16.826;2023-02-15T10:40:20;102202.32;;;10.39;56.96
26436;BME280;15351;52.408;16.826;2023-02-15T10:49:51;102197.85;;;10.35;56.09
26436;BME280;15351;52.408;16.826;2023-02-15T10:56:24;102189.64;;;10.42;56.33
26436;BME280;15351;52.408;16.826;2023-02-15T11:02:22;102178.96;;;10.69;55.55
26436;BME280;15351;52.408;16.826;2023-02-15T11:05:03;102177.89;;;10.77;55.46
26436;BME280;15351;52.408;16.826;2023-02-15T11:08:05;102171.04;;;10.79;55.18
26436;BME280;15351;52.408;16.826;2023-02-15T11:10:58;102165.02;;;10.81;55.26
26436;BME280;15351;52.408;16.826;2023-02-15T11:13:49;102162.74;;;10.94;55.22
26436;BME280;15351;52.408;16.826;2023-02-15T11:16:32;102157.63;;;10.95;54.74
26436;BME280;15351;52.408;16.826;2023-02-15T11:19:06;102156.91;;;10.95;54.89
26436;BME280;15351;52.408;16.826;2023-02-15T11:21:51;102159.02;;;11.01;54.90
26436;BME280;15351;52.408;16.826;2023-02-15T11:24:30;102157.70;;;11.08;54.54
26436;BME280;15351;52.408;16.826;2023-02-15T11:27:20;102156.27;;;11.17;55.06
26436;BME280;15351;52.408;16.826;2023-02-15T11:30:34;102154.58;;;11.36;54.81
26436;BME280;15351;52.408;16.826;2023-02-15T11:32:57;102148.73;;;11.36;54.41
26436;BME280;15351;52.408;16.826;2023-02-15T11:35:47;102146.27;;;11.30;54.31
26436;BME280;15351;52.408;16.826;2023-02-15T11:38:24;102143.83;;;11.39;54.51
26436;BME280;15351;52.408;16.826;2023-02-15T11:41:09;102144.18;;;11.48;54.53
26436;BME280;15351;52.408;16.826;2023-02-15T11:43:43;102140.59;;;11.48;54.31
26436;BME280;15351;52.408;16.826;2023-02-15T11:46:15;102138.00;;;11.44;53.95
26436;BME280;15351;52.408;16.826;2023-02-15T11:48:43;102134.36;;;11.30;54.04
26436;BME280;15351;52.408;16.826;2023-02-15T11:51:14;102130.06;;;11.36;54.24
26436;BME280;15351;52.408;16.826;2023-02-15T11:53:48;102129.62;;;11.40;54.48
26436;BME280;15351;52.408;16.826;2023-02-15T11:56:39;102126.23;;;11.48;54.42
26436;BME280;15351;52.408;16.826;2023-02-15T12:02:46;102122.19;;;11.45;54.14
26436;BME280;15351;52.408;16.826;2023-02-15T12:05:21;102114.08;;;11.47;54.00
26436;BME280;15351;52.408;16.826;2023-02-15T12:08:09;102108.84;;;11.39;54.06
26436;BME280;15351;52.408;16.826;2023-02-15T12:11:19;102108.79;;;11.46;54.11
26436;BME280;15351;52.408;16.826;2023-02-15T12:14:04;102104.84;;;11.45;54.19
26436;BME280;15351;52.408;16.826;2023-02-15T12:16:41;102110.66;;;11.50;54.12
26436;BME280;15351;52.408;16.826;2023-02-15T12:19:33;102104.63;;;11.48;54.21
26436;BME280;15351;52.408;16.826;2023-02-15T12:22:04;102104.95;;;11.52;54.13
26436;BME280;15351;52.408;16.826;2023-02-15T12:24:44;102101.06;;;11.57;54.19
26436;BME280;15351;52.408;16.826;2023-02-15T12:27:30;102097.57;;;11.61;54.03
26436;BME280;15351;52.408;16.826;2023-02-15T12:30:28;102094.02;;;11.61;53.85
26436;BME280;15351;52.408;16.826;2023-02-15T12:36:29;102083.80;;;11.35;53.34
26436;BME280;15351;52.408;16.826;2023-02-15T12:39:15;102076.30;;;11.37;53.66
26436;BME280;15351;52.408;16.826;2023-02-15T12:41:58;102076.25;;;11.31;53.88
26436;BME280;15351;52.408;16.826;2023-02-15T12:44:36;102074.98;;;11.43;54.34
26436;BME280;15351;52.408;16.826;2023-02-15T12:47:17;102071.75;;;11.54;54.38
26436;BME280;15351;52.408;16.826;2023-02-15T12:50:23;102072.58;;;11.62;54.19
26436;BME280;15351;52.408;16.826;2023-02-15T12:53:14;102073.52;;;11.68;54.14
26436;BME280;15351;52.408;16.826;2023-02-15T12:56:09;102068.88;;;11.63;53.77
26436;BME280;15351;52.408;16.826;2023-02-15T12:58:44;102068.59;;;11.57;54.02
26436;BME280;15351;52.408;16.826;2023-02-15T13:02:00;102064.71;;;11.52;53.95
26436;BME280;15351;52.408;16.826;2023-02-15T13:04:47;102066.02;;;11.55;53.88
26436;BME280;15351;52.408;16.826;2023-02-15T13:07:15;102063.40;;;11.54;53.77
26436;BME280;15351;52.408;16.826;2023-02-15T13:09:44;102060.19;;;11.54;53.78
26436;BME280;15351;52.408;16.826;2023-02-15T13:12:23;102055.71;;;11.47;53.77
26436;BME280;15351;52.408;16.826;2023-02-15T13:14:56;102051.83;;;11.38;53.75
26436;BME280;15351;52.408;16.826;2023-02-15T13:17:30;102049.38;;;11.31;53.88
26436;BME280;15351;52.408;16.826;2023-02-15T13:20:21;102047.30;;;11.25;54.10
26436;BME280;15351;52.408;16.826;2023-02-15T13:23:08;102044.85;;;11.30;54.58
26436;BME280;15351;52.408;16.826;2023-02-15T13:25:46;102041.36;;;11.32;54.51
26436;BME280;15351;52.408;16.826;2023-02-15T13:28:44;102043.81;;;11.31;54.62
26436;BME280;15351;52.408;16.826;2023-02-15T13:31:18;102037.10;;;11.23;54.25
26436;BME280;15351;52.408;16.826;2023-02-15T13:33:51;102034.28;;;11.15;54.40
26436;BME280;15351;52.408;16.826;2023-02-15T13:37:02;102030.85;;;11.05;54.28
26436;BME280;15351;52.408;16.826;2023-02-15T13:39:57;102031.39;;;11.02;54.34
26436;BME280;15351;52.408;16.826;2023-02-15T13:42:40;102031.55;;;10.96;54.22
26436;BME280;15351;52.408;16.826;2023-02-15T13:48:33;102033.98;;;10.72;54.38
26436;BME280;15351;52.408;16.826;2023-02-15T13:51:11;102035.14;;;10.67;54.78
26436;BME280;15351;52.408;16.826;2023-02-15T13:53:46;102032.64;;;10.67;54.87
26436;BME280;15351;52.408;16.826;2023-02-15T13:56:47;102031.88;;;10.63;55.06
26436;BME280;15351;52.408;16.826;2023-02-15T13:59:29;102020.46;;;10.57;55.16
26436;BME280;15351;52.408;16.826;2023-02-15T14:05:51;102009.70;;;10.44;55.39
26436;BME280;15351;52.408;16.826;2023-02-15T14:25:48;101992.98;;;10.13;56.30
26436;BME280;15351;52.408;16.826;2023-02-15T14:31:35;101991.11;;;10.00;56.72
26436;BME280;15351;52.408;16.826;2023-02-15T14:34:19;101992.92;;;9.94;56.99
26436;BME280;15351;52.408;16.826;2023-02-15T14:36:51;101994.13;;;9.93;57.22
26436;BME280;15351;52.408;16.826;2023-02-15T14:42:50;101995.46;;;9.91;57.63
26436;BME280;15351;52.408;16.826;2023-02-15T14:45:28;101993.02;;;9.84;57.51
26436;BME280;15351;52.408;16.826;2023-02-15T14:48:15;101996.14;;;9.78;57.79
26436;BME280;15351;52.408;16.826;2023-02-15T14:50:46;101998.89;;;9.76;58.06
26436;BME280;15351;52.408;16.826;2023-02-15T14:56:17;101995.88;;;9.65;57.98
26436;BME280;15351;52.408;16.826;2023-02-15T15:01:39;101993.84;;;9.56;57.88
26436;BME280;15351;52.408;16.826;2023-02-15T15:04:07;101990.34;;;9.47;58.18
26436;BME280;15351;52.408;16.826;2023-02-15T15:06:40;101983.77;;;9.43;58.17
26436;BME280;15351;52.408;16.826;2023-02-15T15:09:22;101977.76;;;9.37;58.34
26436;BME280;15351;52.408;16.826;2023-02-15T15:15:34;101970.83;;;9.30;58.64
26436;BME280;15351;52.408;16.826;2023-02-15T15:18:08;101966.84;;;9.27;58.89
26436;BME280;15351;52.408;16.826;2023-02-15T15:20:44;101966.03;;;9.24;58.96
26436;BME280;15351;52.408;16.826;2023-02-15T15:28:55;101962.21;;;9.08;59.28
26436;BME280;15351;52.408;16.826;2023-02-15T15:32:05;101961.05;;;9.03;59.36
26436;BME280;15351;52.408;16.826;2023-02-15T15:40:39;101957.23;;;8.91;59.95
26436;BME280;15351;52.408;16.826;2023-02-15T15:43:38;101956.44;;;8.88;60.04
26436;BME280;15351;52.408;16.826;2023-02-15T15:49:16;101953.63;;;8.79;60.35